EICK

Cork Airport

Cork, Ireland
METAR EICK 180700Z 21003KT 0600 R17/1200N R35/1000N FG SCT001 BKN002 BKN004 07/07 Q1017 BECMG 1200
Observed Flight Rules
Feb-18 @ 07:00 UTC (13 minutes ago) Instrument Flight Rules
Wind Visibility Clouds Conditions
210° at 3 knots 595 meters
  • Scattered at 100' AGL
  • Broken at 200' AGL
  • Broken at 400' AGL
  • Fog
Temperatures Readings
Current 7°C / 45°F
Dewpoint 7°C / 45°F
Humidity 100%
Altimeter 30.03" Hg
Pressure 1017 hPa
Elevation 162
METAR EICK 180700Z 21003KT 0600 R17/1200N R35/1000N FG SCT001 BKN002 BKN004 07/07 Q1017 BECMG 1200
Observed Flight Rules
Feb-18 @ 07:00 UTC
(13 minutes ago)
LIFR
Wind Visibility
210° at 3 knots 595 meters
Clouds
  • Scattered at 100' AGL
  • Broken at 200' AGL
  • Broken at 400' AGL
Conditions
  • Fog
Temperature Dewpoint
7°C / 45°F 7°C / 45°F
Humidity Altimeter Pressure
100% 30.03" Hg 1017 hPa